sensor_id;sensor_type;location;lat;lon;timestamp;pressure;altitude;pressure_sealevel;temperature;humidity
29825;BME280;16713;52.916;12.834;2022-07-21T00:01:57;100901.25;;;19.85;64.39
29825;BME280;16713;52.916;12.834;2022-07-21T00:04:23;100903.38;;;19.70;64.53
29825;BME280;16713;52.916;12.834;2022-07-21T00:06:50;100909.38;;;19.69;65.57
29825;BME280;16713;52.916;12.834;2022-07-21T00:09:17;100904.25;;;19.60;65.94
29825;BME280;16713;52.916;12.834;2022-07-21T00:11:43;100909.13;;;19.53;66.55
29825;BME280;16713;52.916;12.834;2022-07-21T00:14:11;100902.34;;;19.54;65.65
29825;BME280;16713;52.916;12.834;2022-07-21T00:16:38;100901.63;;;19.46;65.89
29825;BME280;16713;52.916;12.834;2022-07-21T00:19:06;100894.50;;;19.38;65.89
29825;BME280;16713;52.916;12.834;2022-07-21T00:21:33;100891.34;;;19.33;65.75
29825;BME280;16713;52.916;12.834;2022-07-21T00:24:00;100885.09;;;19.22;65.38
29825;BME280;16713;52.916;12.834;2022-07-21T00:26:27;100890.25;;;19.20;65.92
29825;BME280;16713;52.916;12.834;2022-07-21T00:28:53;100888.38;;;19.10;67.51
29825;BME280;16713;52.916;12.834;2022-07-21T00:31:21;100893.16;;;19.02;67.12
29825;BME280;16713;52.916;12.834;2022-07-21T00:33:48;100884.41;;;19.07;66.54
29825;BME280;16713;52.916;12.834;2022-07-21T00:36:18;100878.84;;;19.04;66.72
29825;BME280;16713;52.916;12.834;2022-07-21T00:38:45;100876.13;;;19.00;67.04
29825;BME280;16713;52.916;12.834;2022-07-21T00:41:12;100882.84;;;19.03;67.21
29825;BME280;16713;52.916;12.834;2022-07-21T00:43:38;100866.25;;;18.92;66.16
29825;BME280;16713;52.916;12.834;2022-07-21T00:46:05;100860.72;;;18.85;67.19
29825;BME280;16713;52.916;12.834;2022-07-21T00:48:32;100863.84;;;18.91;66.83
29825;BME280;16713;52.916;12.834;2022-07-21T00:50:59;100854.38;;;18.84;66.67
29825;BME280;16713;52.916;12.834;2022-07-21T00:53:25;100852.00;;;18.79;67.28
29825;BME280;16713;52.916;12.834;2022-07-21T00:55:52;100847.72;;;18.68;67.60
29825;BME280;16713;52.916;12.834;2022-07-21T00:58:19;100848.06;;;18.70;67.44
29825;BME280;16713;52.916;12.834;2022-07-21T01:00:46;100833.41;;;18.69;67.50
29825;BME280;16713;52.916;12.834;2022-07-21T01:03:13;100839.41;;;18.64;68.73
29825;BME280;16713;52.916;12.834;2022-07-21T01:05:40;100848.09;;;18.66;67.94
29825;BME280;16713;52.916;12.834;2022-07-21T01:08:07;100857.97;;;18.81;68.60
29825;BME280;16713;52.916;12.834;2022-07-21T01:10:34;100853.25;;;18.75;68.63
29825;BME280;16713;52.916;12.834;2022-07-21T01:13:01;100860.00;;;18.74;68.00
29825;BME280;16713;52.916;12.834;2022-07-21T01:15:28;100860.78;;;18.74;68.19
29825;BME280;16713;52.916;12.834;2022-07-21T01:17:54;100861.53;;;18.82;67.35
29825;BME280;16713;52.916;12.834;2022-07-21T01:20:22;100862.38;;;18.75;67.99
29825;BME280;16713;52.916;12.834;2022-07-21T01:22:53;100864.75;;;18.73;67.58
29825;BME280;16713;52.916;12.834;2022-07-21T01:25:22;100853.66;;;18.73;67.92
29825;BME280;16713;52.916;12.834;2022-07-21T01:27:48;100859.94;;;18.81;68.56
29825;BME280;16713;52.916;12.834;2022-07-21T01:30:16;100844.03;;;18.85;68.13
29825;BME280;16713;52.916;12.834;2022-07-21T01:32:43;100845.63;;;18.86;67.46
29825;BME280;16713;52.916;12.834;2022-07-21T01:35:13;100836.53;;;18.78;68.44
29825;BME280;16713;52.916;12.834;2022-07-21T01:37:44;100836.13;;;18.83;67.47
29825;BME280;16713;52.916;12.834;2022-07-21T01:40:11;100836.16;;;18.76;68.36
29825;BME280;16713;52.916;12.834;2022-07-21T01:42:56;100837.38;;;18.75;68.14
29825;BME280;16713;52.916;12.834;2022-07-21T01:45:23;100836.56;;;18.75;68.33
29825;BME280;16713;52.916;12.834;2022-07-21T01:47:50;100843.31;;;18.77;67.79
29825;BME280;16713;52.916;12.834;2022-07-21T01:50:17;100840.06;;;18.86;67.88
29825;BME280;16713;52.916;12.834;2022-07-21T01:52:45;100833.38;;;18.76;68.29
29825;BME280;16713;52.916;12.834;2022-07-21T01:55:12;100825.00;;;18.83;67.40
29825;BME280;16713;52.916;12.834;2022-07-21T01:57:39;100817.06;;;18.82;67.84
29825;BME280;16713;52.916;12.834;2022-07-21T02:00:06;100807.59;;;18.69;68.56
29825;BME280;16713;52.916;12.834;2022-07-21T02:02:33;100796.91;;;18.67;67.70
29825;BME280;16713;52.916;12.834;2022-07-21T02:05:00;100809.16;;;18.77;66.92
29825;BME280;16713;52.916;12.834;2022-07-21T02:07:26;100814.63;;;18.88;66.30
29825;BME280;16713;52.916;12.834;2022-07-21T02:09:53;100814.97;;;18.97;66.39
29825;BME280;16713;52.916;12.834;2022-07-21T02:12:19;100802.63;;;19.01;67.02
29825;BME280;16713;52.916;12.834;2022-07-21T02:14:46;100803.38;;;19.05;66.17
29825;BME280;16713;52.916;12.834;2022-07-21T02:17:13;100813.28;;;19.10;66.73
29825;BME280;16713;52.916;12.834;2022-07-21T02:19:39;100812.38;;;19.20;65.44
29825;BME280;16713;52.916;12.834;2022-07-21T02:22:06;100801.69;;;19.18;65.89
29825;BME280;16713;52.916;12.834;2022-07-21T02:24:32;100804.44;;;19.22;64.95
29825;BME280;16713;52.916;12.834;2022-07-21T02:27:01;100800.06;;;19.24;65.15
29825;BME280;16713;52.916;12.834;2022-07-21T02:29:28;100807.97;;;19.26;65.39
29825;BME280;16713;52.916;12.834;2022-07-21T02:31:54;100803.72;;;19.14;66.40
29825;BME280;16713;52.916;12.834;2022-07-21T02:34:21;100799.28;;;19.20;65.48
29825;BME280;16713;52.916;12.834;2022-07-21T02:36:47;100796.94;;;19.15;65.02
29825;BME280;16713;52.916;12.834;2022-07-21T02:39:14;100813.97;;;19.21;64.21
29825;BME280;16713;52.916;12.834;2022-07-21T02:41:42;100815.13;;;19.23;64.42
29825;BME280;16713;52.916;12.834;2022-07-21T02:44:09;100811.03;;;19.38;64.77
29825;BME280;16713;52.916;12.834;2022-07-21T02:46:35;100811.50;;;19.30;64.16
29825;BME280;16713;52.916;12.834;2022-07-21T02:49:02;100813.53;;;19.26;65.95
29825;BME280;16713;52.916;12.834;2022-07-21T02:51:28;100819.91;;;19.23;65.51
29825;BME280;16713;52.916;12.834;2022-07-21T02:53:55;100827.22;;;19.06;66.19
29825;BME280;16713;52.916;12.834;2022-07-21T02:56:21;100820.09;;;19.02;66.21
29825;BME280;16713;52.916;12.834;2022-07-21T02:58:48;100826.97;;;18.87;67.67
29825;BME280;16713;52.916;12.834;2022-07-21T03:01:15;100826.56;;;18.88;67.19
29825;BME280;16713;52.916;12.834;2022-07-21T03:03:41;100831.31;;;18.88;66.80
29825;BME280;16713;52.916;12.834;2022-07-21T03:06:08;100814.75;;;18.66;67.98
29825;BME280;16713;52.916;12.834;2022-07-21T03:08:35;100810.47;;;18.55;67.53
29825;BME280;16713;52.916;12.834;2022-07-21T03:11:01;100809.72;;;18.47;68.30
29825;BME280;16713;52.916;12.834;2022-07-21T03:13:29;100814.91;;;18.45;69.52
29825;BME280;16713;52.916;12.834;2022-07-21T03:15:56;100816.06;;;18.48;67.86
29825;BME280;16713;52.916;12.834;2022-07-21T03:18:22;100822.03;;;18.46;68.71
29825;BME280;16713;52.916;12.834;2022-07-21T03:20:49;100814.09;;;18.45;68.38
29825;BME280;16713;52.916;12.834;2022-07-21T03:23:15;100809.38;;;18.38;69.79
29825;BME280;16713;52.916;12.834;2022-07-21T03:25:42;100816.97;;;18.27;69.94
29825;BME280;16713;52.916;12.834;2022-07-21T03:28:09;100820.16;;;18.29;70.13
29825;BME280;16713;52.916;12.834;2022-07-21T03:30:36;100814.94;;;18.35;69.27
29825;BME280;16713;52.916;12.834;2022-07-21T03:33:03;100810.25;;;18.21;69.84
29825;BME280;16713;52.916;12.834;2022-07-21T03:35:30;100824.50;;;18.23;69.07
29825;BME280;16713;52.916;12.834;2022-07-21T03:37:59;100808.69;;;18.17;70.02
29825;BME280;16713;52.916;12.834;2022-07-21T03:40:28;100817.81;;;18.14;70.51
29825;BME280;16713;52.916;12.834;2022-07-21T03:42:57;100812.25;;;18.17;70.41
29825;BME280;16713;52.916;12.834;2022-07-21T03:45:25;100805.91;;;18.17;70.44
29825;BME280;16713;52.916;12.834;2022-07-21T03:47:52;100817.41;;;18.15;70.03
29825;BME280;16713;52.916;12.834;2022-07-21T03:50:19;100812.66;;;18.19;70.28
29825;BME280;16713;52.916;12.834;2022-07-21T03:52:46;100825.63;;;18.40;70.26
29825;BME280;16713;52.916;12.834;2022-07-21T03:55:13;100819.69;;;18.38;70.11
29825;BME280;16713;52.916;12.834;2022-07-21T03:57:58;100818.47;;;18.42;69.84
29825;BME280;16713;52.916;12.834;2022-07-21T04:00:30;100814.09;;;18.45;69.91
29825;BME280;16713;52.916;12.834;2022-07-21T04:02:58;100815.66;;;18.53;69.70
29825;BME280;16713;52.916;12.834;2022-07-21T04:05:25;100814.94;;;18.35;70.69
29825;BME280;16713;52.916;12.834;2022-07-21T04:07:52;100818.13;;;18.37;70.47
29825;BME280;16713;52.916;12.834;2022-07-21T04:10:22;100810.13;;;18.42;70.13
29825;BME280;16713;52.916;12.834;2022-07-21T04:12:50;100824.78;;;18.50;70.35
29825;BME280;16713;52.916;12.834;2022-07-21T04:15:17;100835.94;;;18.43;70.76
29825;BME280;16713;52.916;12.834;2022-07-21T04:17:44;100837.09;;;18.49;70.73
29825;BME280;16713;52.916;12.834;2022-07-21T04:20:12;100838.59;;;18.60;70.82
29825;BME280;16713;52.916;12.834;2022-07-21T04:22:41;100836.56;;;18.75;70.12
29825;BME280;16713;52.916;12.834;2022-07-21T04:25:08;100840.84;;;18.87;68.85
29825;BME280;16713;52.916;12.834;2022-07-21T04:27:36;100845.56;;;18.97;68.90
29825;BME280;16713;52.916;12.834;2022-07-21T04:30:04;100851.47;;;18.99;68.67
29825;BME280;16713;52.916;12.834;2022-07-21T04:32:31;100845.50;;;19.04;68.76
29825;BME280;16713;52.916;12.834;2022-07-21T04:34:57;100861.69;;;19.19;68.70
29825;BME280;16713;52.916;12.834;2022-07-21T04:37:24;100878.13;;;19.44;66.26
29825;BME280;16713;52.916;12.834;2022-07-21T04:39:50;100873.91;;;19.73;64.86
29825;BME280;16713;52.916;12.834;2022-07-21T04:42:19;100880.50;;;19.93;62.80
29825;BME280;16713;52.916;12.834;2022-07-21T04:44:46;100884.59;;;20.15;61.71
29825;BME280;16713;52.916;12.834;2022-07-21T04:47:13;100902.28;;;20.35;60.45
29825;BME280;16713;52.916;12.834;2022-07-21T04:49:39;100902.56;;;20.48;59.98
29825;BME280;16713;52.916;12.834;2022-07-21T04:52:06;100907.34;;;20.47;61.86
29825;BME280;16713;52.916;12.834;2022-07-21T04:54:33;100931.22;;;20.78;62.94
29825;BME280;16713;52.916;12.834;2022-07-21T04:56:59;100939.09;;;20.83;63.58
29825;BME280;16713;52.916;12.834;2022-07-21T04:59:29;100954.97;;;20.90;65.16
29825;BME280;16713;52.916;12.834;2022-07-21T05:01:56;100957.91;;;20.79;65.88
29825;BME280;16713;52.916;12.834;2022-07-21T05:04:23;100965.63;;;20.98;67.07
29825;BME280;16713;52.916;12.834;2022-07-21T05:06:50;100960.94;;;20.92;67.86
29825;BME280;16713;52.916;12.834;2022-07-21T05:09:16;100963.63;;;20.99;68.44
29825;BME280;16713;52.916;12.834;2022-07-21T05:11:43;100939.09;;;20.83;68.46
29825;BME280;16713;52.916;12.834;2022-07-21T05:14:09;100923.59;;;20.82;68.99
29825;BME280;16713;52.916;12.834;2022-07-21T05:16:41;100931.16;;;20.82;69.18
29825;BME280;16713;52.916;12.834;2022-07-21T05:19:08;100945.16;;;20.78;70.12
29825;BME280;16713;52.916;12.834;2022-07-21T05:21:34;100937.34;;;20.66;70.73
29825;BME280;16713;52.916;12.834;2022-07-21T05:24:01;100939.94;;;20.80;70.19
29825;BME280;16713;52.916;12.834;2022-07-21T05:26:27;100932.41;;;20.77;69.91
29825;BME280;16713;52.916;12.834;2022-07-21T05:28:54;100951.22;;;20.73;69.93
29825;BME280;16713;52.916;12.834;2022-07-21T05:31:21;100934.22;;;20.94;69.11
29825;BME280;16713;52.916;12.834;2022-07-21T05:33:48;100964.94;;;20.91;70.18
29825;BME280;16713;52.916;12.834;2022-07-21T05:36:14;100974.59;;;21.13;69.54
29825;BME280;16713;52.916;12.834;2022-07-21T05:38:41;100970.16;;;21.15;69.61
29825;BME280;16713;52.916;12.834;2022-07-21T05:41:07;100976.88;;;21.21;69.42
29825;BME280;16713;52.916;12.834;2022-07-21T05:43:34;100976.88;;;21.21;69.21
29825;BME280;16713;52.916;12.834;2022-07-21T05:46:01;100981.84;;;21.33;69.41
29825;BME280;16713;52.916;12.834;2022-07-21T05:48:27;100987.72;;;21.42;69.12
29825;BME280;16713;52.916;12.834;2022-07-21T05:50:54;100989.28;;;21.43;69.26
29825;BME280;16713;52.916;12.834;2022-07-21T05:53:20;100985.59;;;21.50;69.53
29825;BME280;16713;52.916;12.834;2022-07-21T05:55:48;100986.69;;;21.60;69.17
29825;BME280;16713;52.916;12.834;2022-07-21T05:58:15;100994.63;;;21.61;69.08
29825;BME280;16713;52.916;12.834;2022-07-21T06:00:42;100999.34;;;21.64;69.12
29825;BME280;16713;52.916;12.834;2022-07-21T06:03:08;101003.31;;;21.67;69.30
29825;BME280;16713;52.916;12.834;2022-07-21T06:05:38;101015.63;;;21.69;68.54
29825;BME280;16713;52.916;12.834;2022-07-21T06:08:05;101021.66;;;21.68;69.08
29825;BME280;16713;52.916;12.834;2022-07-21T06:10:31;101018.84;;;21.68;69.56
29825;BME280;16713;52.916;12.834;2022-07-21T06:12:59;101025.66;;;21.67;68.87
29825;BME280;16713;52.916;12.834;2022-07-21T06:15:26;101029.59;;;21.69;68.52
29825;BME280;16713;52.916;12.834;2022-07-21T06:17:52;101032.38;;;21.69;68.80
29825;BME280;16713;52.916;12.834;2022-07-21T06:20:20;101033.38;;;21.82;68.16
29825;BME280;16713;52.916;12.834;2022-07-21T06:22:47;101027.91;;;21.75;67.96
29825;BME280;16713;52.916;12.834;2022-07-21T06:25:13;101030.88;;;21.88;67.54
29825;BME280;16713;52.916;12.834;2022-07-21T06:27:40;101030.09;;;21.87;67.60
29825;BME280;16713;52.916;12.834;2022-07-21T06:30:07;101018.75;;;21.75;67.09
29825;BME280;16713;52.916;12.834;2022-07-21T06:32:34;101034.75;;;21.97;66.75
29825;BME280;16713;52.916;12.834;2022-07-21T06:35:00;101039.75;;;22.06;65.65
29825;BME280;16713;52.916;12.834;2022-07-21T06:37:27;101038.78;;;21.93;66.30
29825;BME280;16713;52.916;12.834;2022-07-21T06:39:54;101038.78;;;21.93;66.28
29825;BME280;16713;52.916;12.834;2022-07-21T06:42:20;101047.53;;;22.21;65.98
29825;BME280;16713;52.916;12.834;2022-07-21T06:44:47;101053.72;;;22.06;66.28
29825;BME280;16713;52.916;12.834;2022-07-21T06:47:18;101052.91;;;22.32;65.81
29825;BME280;16713;52.916;12.834;2022-07-21T06:49:45;101049.25;;;22.35;64.86
29825;BME280;16713;52.916;12.834;2022-07-21T06:52:12;101057.47;;;22.65;65.07
29825;BME280;16713;52.916;12.834;2022-07-21T06:54:38;101057.94;;;22.83;64.38
29825;BME280;16713;52.916;12.834;2022-07-21T06:57:05;101058.03;;;22.99;63.56
29825;BME280;16713;52.916;12.834;2022-07-21T06:59:33;101053.84;;;23.07;63.02
29825;BME280;16713;52.916;12.834;2022-07-21T07:01:59;101056.28;;;23.25;62.94
29825;BME280;16713;52.916;12.834;2022-07-21T07:04:27;101066.16;;;23.29;61.81
29825;BME280;16713;52.916;12.834;2022-07-21T07:06:54;101069.44;;;23.44;61.65
29825;BME280;16713;52.916;12.834;2022-07-21T07:09:22;101084.50;;;23.34;60.86
29825;BME280;16713;52.916;12.834;2022-07-21T07:11:49;101086.13;;;23.51;61.66
29825;BME280;16713;52.916;12.834;2022-07-21T07:14:38;101095.81;;;23.46;60.58
29825;BME280;16713;52.916;12.834;2022-07-21T07:17:04;101107.44;;;23.45;61.22
29825;BME280;16713;52.916;12.834;2022-07-21T07:19:31;101105.38;;;23.49;61.02
29825;BME280;16713;52.916;12.834;2022-07-21T07:21:58;101085.91;;;23.42;60.82
29825;BME280;16713;52.916;12.834;2022-07-21T07:24:25;101084.03;;;23.55;60.83
29825;BME280;16713;52.916;12.834;2022-07-21T07:26:51;101106.22;;;23.65;61.04
29825;BME280;16713;52.916;12.834;2022-07-21T07:29:18;101104.53;;;23.68;61.02
29825;BME280;16713;52.916;12.834;2022-07-21T07:31:44;101114.31;;;23.60;60.97
29825;BME280;16713;52.916;12.834;2022-07-21T07:34:11;101125.41;;;23.83;60.30
29825;BME280;16713;52.916;12.834;2022-07-21T07:36:38;101109.63;;;23.73;59.28
29825;BME280;16713;52.916;12.834;2022-07-21T07:39:10;101111.44;;;23.63;59.40
29825;BME280;16713;52.916;12.834;2022-07-21T07:41:37;101130.22;;;23.82;59.53
29825;BME280;16713;52.916;12.834;2022-07-21T07:44:04;101145.09;;;23.79;59.14
29825;BME280;16713;52.916;12.834;2022-07-21T07:46:30;101149.34;;;24.03;60.46
29825;BME280;16713;52.916;12.834;2022-07-21T07:48:57;101154.41;;;24.12;58.46
29825;BME280;16713;52.916;12.834;2022-07-21T07:51:34;101158.31;;;24.14;59.50
29825;BME280;16713;52.916;12.834;2022-07-21T07:54:00;101163.59;;;24.28;58.08
29825;BME280;16713;52.916;12.834;2022-07-21T07:56:30;101174.56;;;24.39;59.07
29825;BME280;16713;52.916;12.834;2022-07-21T07:58:57;101179.44;;;24.35;57.24
29825;BME280;16713;52.916;12.834;2022-07-21T08:01:24;101171.03;;;24.51;58.61
29825;BME280;16713;52.916;12.834;2022-07-21T08:03:50;101176.31;;;24.65;57.99
29825;BME280;16713;52.916;12.834;2022-07-21T08:06:17;101186.38;;;24.79;58.79
29825;BME280;16713;52.916;12.834;2022-07-21T08:08:44;101177.53;;;24.80;59.02
29825;BME280;16713;52.916;12.834;2022-07-21T08:11:11;101176.47;;;24.90;58.14
29825;BME280;16713;52.916;12.834;2022-07-21T08:13:39;101196.78;;;25.10;57.21
29825;BME280;16713;52.916;12.834;2022-07-21T08:16:06;101182.75;;;25.10;58.79
29825;BME280;16713;52.916;12.834;2022-07-21T08:18:33;101181.94;;;25.10;57.38
29825;BME280;16713;52.916;12.834;2022-07-21T08:21:00;101180.31;;;25.25;57.44
29825;BME280;16713;52.916;12.834;2022-07-21T08:23:26;101182.34;;;25.24;57.08
29825;BME280;16713;52.916;12.834;2022-07-21T08:25:53;101192.16;;;25.32;56.79
29825;BME280;16713;52.916;12.834;2022-07-21T08:28:19;101210.63;;;25.46;56.63
29825;BME280;16713;52.916;12.834;2022-07-21T08:30:46;101212.91;;;25.51;55.70
29825;BME280;16713;52.916;12.834;2022-07-21T08:33:12;101210.56;;;25.62;54.92
29825;BME280;16713;52.916;12.834;2022-07-21T08:35:40;101201.13;;;25.27;55.32
29825;BME280;16713;52.916;12.834;2022-07-21T08:38:08;101206.34;;;25.41;55.08
29825;BME280;16713;52.916;12.834;2022-07-21T08:40:38;101206.03;;;25.23;54.79
29825;BME280;16713;52.916;12.834;2022-07-21T08:43:06;101213.00;;;25.03;55.35
29825;BME280;16713;52.916;12.834;2022-07-21T08:45:36;101220.00;;;25.11;54.97
29825;BME280;16713;52.916;12.834;2022-07-21T08:48:03;101215.28;;;25.08;55.46
29825;BME280;16713;52.916;12.834;2022-07-21T08:50:32;101203.56;;;24.97;55.34
29825;BME280;16713;52.916;12.834;2022-07-21T08:52:59;101203.38;;;25.04;55.17
29825;BME280;16713;52.916;12.834;2022-07-21T08:55:34;101208.09;;;25.07;55.39
29825;BME280;16713;52.916;12.834;2022-07-21T08:58:02;101220.94;;;25.36;56.82
29825;BME280;16713;52.916;12.834;2022-07-21T09:00:33;101213.31;;;25.37;55.56
29825;BME280;16713;52.916;12.834;2022-07-21T09:05:35;101209.13;;;25.29;54.89
29825;BME280;16713;52.916;12.834;2022-07-21T09:08:02;101211.84;;;25.32;54.58
29825;BME280;16713;52.916;12.834;2022-07-21T09:10:30;101211.88;;;25.45;54.27
29825;BME280;16713;52.916;12.834;2022-07-21T09:13:03;101206.19;;;25.61;54.43
29825;BME280;16713;52.916;12.834;2022-07-21T09:15:31;101202.25;;;25.58;54.33
29825;BME280;16713;52.916;12.834;2022-07-21T09:18:13;101209.38;;;25.76;54.42
29825;BME280;16713;52.916;12.834;2022-07-21T09:20:50;101219.09;;;25.87;53.75
29825;BME280;16713;52.916;12.834;2022-07-21T09:23:20;101216.19;;;25.91;53.43
29825;BME280;16713;52.916;12.834;2022-07-21T09:25:52;101230.09;;;25.94;53.33
29825;BME280;16713;52.916;12.834;2022-07-21T09:28:25;101229.66;;;25.96;53.03
29825;BME280;16713;52.916;12.834;2022-07-21T09:31:07;101228.09;;;25.95;52.37
29825;BME280;16713;52.916;12.834;2022-07-21T09:33:45;101221.66;;;25.94;52.45
29825;BME280;16713;52.916;12.834;2022-07-21T09:36:16;101230.22;;;25.91;52.57
29825;BME280;16713;52.916;12.834;2022-07-21T09:38:45;101239.44;;;26.04;51.79
29825;BME280;16713;52.916;12.834;2022-07-21T09:41:18;101235.06;;;25.90;51.26
29825;BME280;16713;52.916;12.834;2022-07-21T09:43:53;101236.19;;;25.93;51.11
29825;BME280;16713;52.916;12.834;2022-07-21T09:46:26;101221.56;;;25.98;51.59
29825;BME280;16713;52.916;12.834;2022-07-21T09:48:59;101216.44;;;25.68;51.10
29825;BME280;16713;52.916;12.834;2022-07-21T09:51:48;101225.94;;;25.86;50.77
29825;BME280;16713;52.916;12.834;2022-07-21T09:54:14;101209.78;;;25.62;50.12
29825;BME280;16713;52.916;12.834;2022-07-21T09:56:42;101220.88;;;25.52;51.09
29825;BME280;16713;52.916;12.834;2022-07-21T09:59:11;101219.91;;;25.72;50.58
29825;BME280;16713;52.916;12.834;2022-07-21T10:01:38;101225.06;;;25.60;50.27
29825;BME280;16713;52.916;12.834;2022-07-21T10:04:06;101223.72;;;25.65;50.32
29825;BME280;16713;52.916;12.834;2022-07-21T10:06:38;101230.28;;;25.75;50.34
29825;BME280;16713;52.916;12.834;2022-07-21T10:09:05;101241.22;;;25.85;49.97
29825;BME280;16713;52.916;12.834;2022-07-21T10:11:32;101227.41;;;25.62;49.61
29825;BME280;16713;52.916;12.834;2022-07-21T10:13:59;101244.00;;;25.73;50.70
29825;BME280;16713;52.916;12.834;2022-07-21T10:16:26;101242.50;;;25.39;49.40
29825;BME280;16713;52.916;12.834;2022-07-21T10:19:02;101250.41;;;25.44;49.37
29825;BME280;16713;52.916;12.834;2022-07-21T10:23:57;101240.19;;;25.06;50.56
29825;BME280;16713;52.916;12.834;2022-07-21T10:26:24;101255.19;;;25.31;50.27
29825;BME280;16713;52.916;12.834;2022-07-21T10:28:51;101258.25;;;25.37;50.86
29825;BME280;16713;52.916;12.834;2022-07-21T10:31:20;101252.72;;;25.33;50.50
29825;BME280;16713;52.916;12.834;2022-07-21T10:41:43;101271.59;;;25.33;51.31
29825;BME280;16713;52.916;12.834;2022-07-21T10:50:00;101295.38;;;24.96;51.64
29825;BME280;16713;52.916;12.834;2022-07-21T10:57:44;101301.03;;;24.61;52.04
29825;BME280;16713;52.916;12.834;2022-07-21T11:02:58;101306.09;;;24.69;51.63
29825;BME280;16713;52.916;12.834;2022-07-21T11:05:28;101295.78;;;24.63;52.18
29825;BME280;16713;52.916;12.834;2022-07-21T11:10:42;101290.13;;;24.31;52.57
29825;BME280;16713;52.916;12.834;2022-07-21T11:13:10;101299.63;;;24.53;51.58
29825;BME280;16713;52.916;12.834;2022-07-21T11:18:21;101306.13;;;24.66;52.53
29825;BME280;16713;52.916;12.834;2022-07-21T11:23:45;101299.84;;;24.62;52.38
29825;BME280;16713;52.916;12.834;2022-07-21T11:26:14;101290.59;;;24.45;52.90
29825;BME280;16713;52.916;12.834;2022-07-21T11:28:42;101287.72;;;24.49;52.44
29825;BME280;16713;52.916;12.834;2022-07-21T11:31:16;101299.81;;;24.46;51.80
29825;BME280;16713;52.916;12.834;2022-07-21T11:33:45;101288.94;;;24.48;52.57
29825;BME280;16713;52.916;12.834;2022-07-21T11:36:27;101249.44;;;24.22;52.41
29825;BME280;16713;52.916;12.834;2022-07-21T11:41:29;101262.25;;;24.23;52.92
29825;BME280;16713;52.916;12.834;2022-07-21T11:43:56;101266.09;;;24.13;54.07
29825;BME280;16713;52.916;12.834;2022-07-21T11:46:23;101236.00;;;23.78;56.59
29825;BME280;16713;52.916;12.834;2022-07-21T11:49:03;101236.00;;;23.59;59.78
29825;BME280;16713;52.916;12.834;2022-07-21T11:51:30;101274.66;;;23.67;58.31
29825;BME280;16713;52.916;12.834;2022-07-21T11:53:57;101271.47;;;23.65;59.64
29825;BME280;16713;52.916;12.834;2022-07-21T11:56:24;101266.88;;;23.55;58.35
29825;BME280;16713;52.916;12.834;2022-07-21T11:59:07;101253.84;;;23.45;59.51
29825;BME280;16713;52.916;12.834;2022-07-21T12:01:51;101254.75;;;23.62;58.61
29825;BME280;16713;52.916;12.834;2022-07-21T12:04:38;101271.63;;;23.58;59.56
29825;BME280;16713;52.916;12.834;2022-07-21T12:07:11;101270.06;;;23.34;63.01
29825;BME280;16713;52.916;12.834;2022-07-21T12:09:39;101291.38;;;23.28;63.47
29825;BME280;16713;52.916;12.834;2022-07-21T12:12:07;101293.19;;;23.15;63.25
29825;BME280;16713;52.916;12.834;2022-07-21T12:14:45;101247.34;;;23.09;62.68
29825;BME280;16713;52.916;12.834;2022-07-21T12:17:12;101230.50;;;22.89;65.07
29825;BME280;16713;52.916;12.834;2022-07-21T12:19:39;101243.53;;;22.73;68.25
29825;BME280;16713;52.916;12.834;2022-07-21T12:22:07;101268.94;;;22.59;67.83
29825;BME280;16713;52.916;12.834;2022-07-21T12:24:55;101233.19;;;22.70;66.45
29825;BME280;16713;52.916;12.834;2022-07-21T12:27:23;101229.22;;;22.44;68.18
29825;BME280;16713;52.916;12.834;2022-07-21T12:29:49;101246.50;;;22.36;70.85
29825;BME280;16713;52.916;12.834;2022-07-21T12:32:37;101225.69;;;22.10;73.40
29825;BME280;16713;52.916;12.834;2022-07-21T12:35:04;101220.50;;;21.82;76.85
29825;BME280;16713;52.916;12.834;2022-07-21T12:40:29;101183.91;;;21.39;77.49
29825;BME280;16713;52.916;12.834;2022-07-21T12:43:16;101187.13;;;21.38;79.58
29825;BME280;16713;52.916;12.834;2022-07-21T12:45:52;101188.81;;;21.28;81.18
29825;BME280;16713;52.916;12.834;2022-07-21T12:48:30;101193.22;;;21.29;83.46
29825;BME280;16713;52.916;12.834;2022-07-21T12:51:05;101193.13;;;21.36;81.81
29825;BME280;16713;52.916;12.834;2022-07-21T12:53:34;101194.50;;;21.59;82.55
29825;BME280;16713;52.916;12.834;2022-07-21T12:56:01;101193.94;;;21.71;82.18
29825;BME280;16713;52.916;12.834;2022-07-21T12:58:27;101186.41;;;21.94;83.22
29825;BME280;16713;52.916;12.834;2022-07-21T13:00:55;101174.63;;;22.10;75.49
29825;BME280;16713;52.916;12.834;2022-07-21T13:03:21;101168.38;;;22.29;72.99
29825;BME280;16713;52.916;12.834;2022-07-21T13:05:56;101173.34;;;22.41;75.95
29825;BME280;16713;52.916;12.834;2022-07-21T13:08:23;101164.66;;;22.58;74.51
29825;BME280;16713;52.916;12.834;2022-07-21T13:10:53;101152.13;;;22.66;72.42
29825;BME280;16713;52.916;12.834;2022-07-21T13:13:19;101159.75;;;22.66;70.28
29825;BME280;16713;52.916;12.834;2022-07-21T13:15:46;101154.31;;;22.78;71.52
29825;BME280;16713;52.916;12.834;2022-07-21T13:18:12;101145.06;;;22.81;68.93
29825;BME280;16713;52.916;12.834;2022-07-21T13:20:39;101156.53;;;22.90;68.17
29825;BME280;16713;52.916;12.834;2022-07-21T13:23:06;101150.78;;;22.98;68.11
29825;BME280;16713;52.916;12.834;2022-07-21T13:25:32;101164.78;;;22.98;67.72
29825;BME280;16713;52.916;12.834;2022-07-21T13:28:02;101165.59;;;22.98;68.91